Rushville, Pennsylvania
Current Conditions -  °F | °C
As of 11:53 AM on Thursday 30 Oct 2014 (Local Time) from KBGM Reporting Station
Overcast Overcast  
Wind Chill: 39°   Ceiling: 2400
Heat Index: 43°   Visibility: 10mi
Dew Point: 35°   Wind: 7mph
Humidity: 74%   Direction: 330°NNW
Pressure: 30.02"   Gusts: NA
Location:  41.78°N, 76.12°W
Report Text: KBGM 301553Z 33006KT 10SM FEW017 OVC024 06/02 A3002 RMK AO2 RAB22E42 SLP173 P0000 T00610017
Loading
Personal Weather Stations






























Interactive Weather Map
Tropical Storm Tracking
New forecast layout! Learn more

10-Day Weather Forecast

Advertisements
Track Severe Weather on mobile